sensor_id;sensor_type;location;lat;lon;timestamp;P1;durP1;ratioP1;P2;durP2;ratioP2
77176;SDS011;66158;44.744;16.712;2022-12-18T00:02:09;598.42;;;491.67;;
77176;SDS011;66158;44.744;16.712;2022-12-18T00:04:35;583.40;;;473.25;;
77176;SDS011;66158;44.744;16.712;2022-12-18T00:07:01;585.20;;;478.35;;
77176;SDS011;66158;44.744;16.712;2022-12-18T00:09:28;561.85;;;456.25;;
77176;SDS011;66158;44.744;16.712;2022-12-18T00:11:53;568.38;;;460.73;;
77176;SDS011;66158;44.744;16.712;2022-12-18T00:14:19;559.83;;;456.73;;
77176;SDS011;66158;44.744;16.712;2022-12-18T00:16:45;555.50;;;444.88;;
77176;SDS011;66158;44.744;16.712;2022-12-18T00:19:12;557.45;;;431.95;;
77176;SDS011;66158;44.744;16.712;2022-12-18T00:21:39;555.25;;;416.58;;
77176;SDS011;66158;44.744;16.712;2022-12-18T00:24:06;559.72;;;418.80;;
77176;SDS011;66158;44.744;16.712;2022-12-18T00:26:32;555.58;;;420.38;;
77176;SDS011;66158;44.744;16.712;2022-12-18T00:29:00;555.75;;;419.08;;
77176;SDS011;66158;44.744;16.712;2022-12-18T00:31:27;552.53;;;414.05;;
77176;SDS011;66158;44.744;16.712;2022-12-18T00:33:54;535.60;;;406.10;;
77176;SDS011;66158;44.744;16.712;2022-12-18T00:36:24;536.10;;;401.90;;
77176;SDS011;66158;44.744;16.712;2022-12-18T00:38:52;535.05;;;397.23;;
77176;SDS011;66158;44.744;16.712;2022-12-18T00:41:19;519.75;;;390.83;;
77176;SDS011;66158;44.744;16.712;2022-12-18T00:44:04;517.20;;;380.45;;
77176;SDS011;66158;44.744;16.712;2022-12-18T00:46:31;494.08;;;354.63;;
77176;SDS011;66158;44.744;16.712;2022-12-18T00:48:57;501.88;;;375.52;;
77176;SDS011;66158;44.744;16.712;2022-12-18T00:51:23;503.83;;;368.50;;
77176;SDS011;66158;44.744;16.712;2022-12-18T00:53:49;498.77;;;367.17;;
77176;SDS011;66158;44.744;16.712;2022-12-18T00:56:15;471.60;;;349.88;;
77176;SDS011;66158;44.744;16.712;2022-12-18T00:58:41;481.98;;;356.80;;
77176;SDS011;66158;44.744;16.712;2022-12-18T01:01:06;475.45;;;345.65;;
77176;SDS011;66158;44.744;16.712;2022-12-18T01:03:33;469.95;;;341.90;;
77176;SDS011;66158;44.744;16.712;2022-12-18T01:05:59;456.17;;;332.65;;
77176;SDS011;66158;44.744;16.712;2022-12-18T01:08:30;467.30;;;331.80;;
77176;SDS011;66158;44.744;16.712;2022-12-18T01:10:55;440.02;;;326.15;;
77176;SDS011;66158;44.744;16.712;2022-12-18T01:13:21;445.38;;;318.58;;
77176;SDS011;66158;44.744;16.712;2022-12-18T01:15:48;437.33;;;316.52;;
77176;SDS011;66158;44.744;16.712;2022-12-18T01:18:14;431.52;;;309.88;;
77176;SDS011;66158;44.744;16.712;2022-12-18T01:20:40;427.27;;;303.45;;
77176;SDS011;66158;44.744;16.712;2022-12-18T01:23:06;424.48;;;304.60;;
77176;SDS011;66158;44.744;16.712;2022-12-18T01:25:32;408.83;;;297.55;;
77176;SDS011;66158;44.744;16.712;2022-12-18T01:27:57;385.80;;;281.50;;
77176;SDS011;66158;44.744;16.712;2022-12-18T01:30:23;398.00;;;282.65;;
77176;SDS011;66158;44.744;16.712;2022-12-18T01:32:49;379.65;;;281.70;;
77176;SDS011;66158;44.744;16.712;2022-12-18T01:35:14;386.55;;;283.95;;
77176;SDS011;66158;44.744;16.712;2022-12-18T01:37:40;389.48;;;283.27;;
77176;SDS011;66158;44.744;16.712;2022-12-18T01:40:06;382.55;;;282.23;;
77176;SDS011;66158;44.744;16.712;2022-12-18T01:42:32;372.90;;;268.40;;
77176;SDS011;66158;44.744;16.712;2022-12-18T01:45:00;365.00;;;267.88;;
77176;SDS011;66158;44.744;16.712;2022-12-18T01:50:11;358.27;;;262.55;;
77176;SDS011;66158;44.744;16.712;2022-12-18T01:52:53;343.77;;;248.95;;
77176;SDS011;66158;44.744;16.712;2022-12-18T01:55:32;346.58;;;249.23;;
77176;SDS011;66158;44.744;16.712;2022-12-18T01:58:03;336.63;;;247.27;;
77176;SDS011;66158;44.744;16.712;2022-12-18T02:00:29;338.02;;;244.55;;
77176;SDS011;66158;44.744;16.712;2022-12-18T02:02:55;324.10;;;233.18;;
77176;SDS011;66158;44.744;16.712;2022-12-18T02:13:43;287.38;;;214.73;;
77176;SDS011;66158;44.744;16.712;2022-12-18T02:16:50;306.65;;;219.05;;
77176;SDS011;66158;44.744;16.712;2022-12-18T02:27:57;282.52;;;206.65;;
77176;SDS011;66158;44.744;16.712;2022-12-18T02:30:26;261.73;;;196.80;;
77176;SDS011;66158;44.744;16.712;2022-12-18T02:32:54;267.63;;;199.27;;
77176;SDS011;66158;44.744;16.712;2022-12-18T02:35:26;269.95;;;197.93;;
77176;SDS011;66158;44.744;16.712;2022-12-18T02:37:54;254.82;;;189.07;;
77176;SDS011;66158;44.744;16.712;2022-12-18T02:40:22;252.55;;;181.93;;
77176;SDS011;66158;44.744;16.712;2022-12-18T02:42:51;264.27;;;189.60;;
77176;SDS011;66158;44.744;16.712;2022-12-18T02:45:16;244.43;;;178.45;;
77176;SDS011;66158;44.744;16.712;2022-12-18T02:47:43;243.88;;;177.60;;
77176;SDS011;66158;44.744;16.712;2022-12-18T02:58:57;231.80;;;165.13;;
77176;SDS011;66158;44.744;16.712;2022-12-18T03:04:21;226.10;;;161.60;;
77176;SDS011;66158;44.744;16.712;2022-12-18T03:06:54;214.40;;;157.63;;
77176;SDS011;66158;44.744;16.712;2022-12-18T03:09:26;218.88;;;156.45;;
77176;SDS011;66158;44.744;16.712;2022-12-18T03:11:58;215.35;;;155.50;;
77176;SDS011;66158;44.744;16.712;2022-12-18T03:15:02;212.38;;;152.25;;
77176;SDS011;66158;44.744;16.712;2022-12-18T03:18:05;204.02;;;146.95;;
77176;SDS011;66158;44.744;16.712;2022-12-18T03:20:47;198.00;;;142.18;;
77176;SDS011;66158;44.744;16.712;2022-12-18T03:23:17;189.23;;;139.82;;
77176;SDS011;66158;44.744;16.712;2022-12-18T03:25:47;197.68;;;140.90;;
77176;SDS011;66158;44.744;16.712;2022-12-18T03:28:19;193.65;;;139.65;;
77176;SDS011;66158;44.744;16.712;2022-12-18T03:30:47;192.13;;;136.98;;
77176;SDS011;66158;44.744;16.712;2022-12-18T03:33:36;186.10;;;133.10;;
77176;SDS011;66158;44.744;16.712;2022-12-18T03:36:06;186.18;;;133.07;;
77176;SDS011;66158;44.744;16.712;2022-12-18T03:38:32;176.18;;;128.15;;
77176;SDS011;66158;44.744;16.712;2022-12-18T03:46:08;172.15;;;124.82;;
77176;SDS011;66158;44.744;16.712;2022-12-18T03:49:00;166.27;;;121.40;;
77176;SDS011;66158;44.744;16.712;2022-12-18T03:51:42;155.23;;;113.05;;
77176;SDS011;66158;44.744;16.712;2022-12-18T03:54:15;162.32;;;114.65;;
77176;SDS011;66158;44.744;16.712;2022-12-18T03:56:44;160.40;;;117.03;;
77176;SDS011;66158;44.744;16.712;2022-12-18T03:59:15;153.98;;;111.22;;
77176;SDS011;66158;44.744;16.712;2022-12-18T04:01:45;152.00;;;109.05;;
77176;SDS011;66158;44.744;16.712;2022-12-18T04:04:13;143.32;;;104.75;;
77176;SDS011;66158;44.744;16.712;2022-12-18T04:06:41;140.80;;;102.68;;
77176;SDS011;66158;44.744;16.712;2022-12-18T04:09:08;144.50;;;101.70;;
77176;SDS011;66158;44.744;16.712;2022-12-18T04:11:35;142.82;;;104.15;;
77176;SDS011;66158;44.744;16.712;2022-12-18T04:14:01;141.35;;;99.88;;
77176;SDS011;66158;44.744;16.712;2022-12-18T04:16:26;141.68;;;101.10;;
77176;SDS011;66158;44.744;16.712;2022-12-18T04:18:53;126.53;;;93.45;;
77176;SDS011;66158;44.744;16.712;2022-12-18T04:21:19;127.20;;;93.50;;
77176;SDS011;66158;44.744;16.712;2022-12-18T04:23:45;126.72;;;91.22;;
77176;SDS011;66158;44.744;16.712;2022-12-18T04:26:11;127.93;;;91.57;;
77176;SDS011;66158;44.744;16.712;2022-12-18T04:28:37;124.88;;;91.85;;
77176;SDS011;66158;44.744;16.712;2022-12-18T04:31:03;128.57;;;91.53;;
77176;SDS011;66158;44.744;16.712;2022-12-18T04:33:29;120.45;;;87.07;;
77176;SDS011;66158;44.744;16.712;2022-12-18T04:36:04;115.00;;;83.22;;
77176;SDS011;66158;44.744;16.712;2022-12-18T04:38:30;118.40;;;84.72;;
77176;SDS011;66158;44.744;16.712;2022-12-18T04:40:55;114.45;;;83.10;;
77176;SDS011;66158;44.744;16.712;2022-12-18T04:43:21;114.18;;;83.35;;
77176;SDS011;66158;44.744;16.712;2022-12-18T04:45:47;113.07;;;80.45;;
77176;SDS011;66158;44.744;16.712;2022-12-18T04:48:13;110.95;;;78.57;;
77176;SDS011;66158;44.744;16.712;2022-12-18T04:50:38;108.22;;;77.95;;
77176;SDS011;66158;44.744;16.712;2022-12-18T04:53:04;105.10;;;76.07;;
77176;SDS011;66158;44.744;16.712;2022-12-18T04:55:30;100.50;;;75.97;;
77176;SDS011;66158;44.744;16.712;2022-12-18T04:57:56;109.65;;;76.07;;
77176;SDS011;66158;44.744;16.712;2022-12-18T05:00:22;104.57;;;72.60;;
77176;SDS011;66158;44.744;16.712;2022-12-18T05:02:48;98.75;;;71.03;;
77176;SDS011;66158;44.744;16.712;2022-12-18T05:05:13;99.18;;;71.53;;
77176;SDS011;66158;44.744;16.712;2022-12-18T05:07:39;94.70;;;69.05;;
77176;SDS011;66158;44.744;16.712;2022-12-18T05:10:09;94.32;;;68.43;;
77176;SDS011;66158;44.744;16.712;2022-12-18T05:12:35;96.28;;;68.78;;
77176;SDS011;66158;44.744;16.712;2022-12-18T05:15:20;96.05;;;68.78;;
77176;SDS011;66158;44.744;16.712;2022-12-18T05:17:46;90.25;;;64.57;;
77176;SDS011;66158;44.744;16.712;2022-12-18T05:20:12;87.88;;;64.25;;
77176;SDS011;66158;44.744;16.712;2022-12-18T05:22:38;86.65;;;62.25;;
77176;SDS011;66158;44.744;16.712;2022-12-18T05:25:03;87.82;;;59.80;;
77176;SDS011;66158;44.744;16.712;2022-12-18T05:27:29;85.00;;;61.25;;
77176;SDS011;66158;44.744;16.712;2022-12-18T05:29:55;86.35;;;62.22;;
77176;SDS011;66158;44.744;16.712;2022-12-18T05:32:21;82.25;;;59.33;;
77176;SDS011;66158;44.744;16.712;2022-12-18T05:34:47;83.10;;;59.42;;
77176;SDS011;66158;44.744;16.712;2022-12-18T05:37:12;83.20;;;59.05;;
77176;SDS011;66158;44.744;16.712;2022-12-18T05:39:38;79.32;;;56.30;;
77176;SDS011;66158;44.744;16.712;2022-12-18T05:42:04;79.93;;;57.25;;
77176;SDS011;66158;44.744;16.712;2022-12-18T05:44:30;78.72;;;54.58;;
77176;SDS011;66158;44.744;16.712;2022-12-18T05:46:55;73.50;;;51.60;;
77176;SDS011;66158;44.744;16.712;2022-12-18T05:49:21;75.78;;;53.55;;
77176;SDS011;66158;44.744;16.712;2022-12-18T05:51:47;75.07;;;52.28;;
77176;SDS011;66158;44.744;16.712;2022-12-18T05:54:12;71.72;;;51.28;;
77176;SDS011;66158;44.744;16.712;2022-12-18T05:56:38;72.32;;;51.50;;
77176;SDS011;66158;44.744;16.712;2022-12-18T05:59:04;69.07;;;50.03;;
77176;SDS011;66158;44.744;16.712;2022-12-18T06:01:29;68.35;;;49.28;;
77176;SDS011;66158;44.744;16.712;2022-12-18T06:03:55;68.93;;;49.55;;
77176;SDS011;66158;44.744;16.712;2022-12-18T06:06:25;65.43;;;49.15;;
77176;SDS011;66158;44.744;16.712;2022-12-18T06:08:52;68.78;;;47.95;;
77176;SDS011;66158;44.744;16.712;2022-12-18T06:11:20;68.28;;;48.75;;
77176;SDS011;66158;44.744;16.712;2022-12-18T06:13:54;67.30;;;48.13;;
77176;SDS011;66158;44.744;16.712;2022-12-18T06:16:20;66.93;;;47.88;;
77176;SDS011;66158;44.744;16.712;2022-12-18T06:18:46;61.72;;;46.15;;
77176;SDS011;66158;44.744;16.712;2022-12-18T06:21:12;62.47;;;45.90;;
77176;SDS011;66158;44.744;16.712;2022-12-18T06:23:38;61.25;;;44.17;;
77176;SDS011;66158;44.744;16.712;2022-12-18T06:26:10;57.33;;;43.38;;
77176;SDS011;66158;44.744;16.712;2022-12-18T06:28:37;57.88;;;43.10;;
77176;SDS011;66158;44.744;16.712;2022-12-18T06:31:04;56.95;;;42.55;;
77176;SDS011;66158;44.744;16.712;2022-12-18T06:33:30;59.08;;;43.55;;
77176;SDS011;66158;44.744;16.712;2022-12-18T06:36:00;55.95;;;41.75;;
77176;SDS011;66158;44.744;16.712;2022-12-18T06:38:27;57.47;;;41.60;;
77176;SDS011;66158;44.744;16.712;2022-12-18T06:40:53;53.42;;;40.35;;
77176;SDS011;66158;44.744;16.712;2022-12-18T06:43:19;57.65;;;41.75;;
77176;SDS011;66158;44.744;16.712;2022-12-18T06:45:45;53.03;;;39.58;;
77176;SDS011;66158;44.744;16.712;2022-12-18T06:48:14;54.05;;;41.05;;
77176;SDS011;66158;44.744;16.712;2022-12-18T06:50:42;49.15;;;38.30;;
77176;SDS011;66158;44.744;16.712;2022-12-18T06:53:08;54.50;;;41.05;;
77176;SDS011;66158;44.744;16.712;2022-12-18T06:55:33;51.25;;;38.97;;
77176;SDS011;66158;44.744;16.712;2022-12-18T06:57:59;50.13;;;37.63;;
77176;SDS011;66158;44.744;16.712;2022-12-18T07:00:25;48.63;;;36.33;;
77176;SDS011;66158;44.744;16.712;2022-12-18T07:02:50;50.30;;;37.78;;
77176;SDS011;66158;44.744;16.712;2022-12-18T07:05:16;53.08;;;36.92;;
77176;SDS011;66158;44.744;16.712;2022-12-18T07:07:42;48.38;;;36.15;;
77176;SDS011;66158;44.744;16.712;2022-12-18T07:10:08;46.53;;;35.78;;
77176;SDS011;66158;44.744;16.712;2022-12-18T07:12:34;47.92;;;34.65;;
77176;SDS011;66158;44.744;16.712;2022-12-18T07:15:00;46.92;;;35.58;;
77176;SDS011;66158;44.744;16.712;2022-12-18T07:17:26;48.20;;;35.92;;
77176;SDS011;66158;44.744;16.712;2022-12-18T07:19:51;43.78;;;33.60;;
77176;SDS011;66158;44.744;16.712;2022-12-18T07:22:17;47.10;;;36.45;;
77176;SDS011;66158;44.744;16.712;2022-12-18T07:24:43;45.30;;;34.92;;
77176;SDS011;66158;44.744;16.712;2022-12-18T07:27:09;44.72;;;33.88;;
77176;SDS011;66158;44.744;16.712;2022-12-18T07:29:34;46.22;;;34.58;;
77176;SDS011;66158;44.744;16.712;2022-12-18T07:32:00;47.28;;;35.90;;
77176;SDS011;66158;44.744;16.712;2022-12-18T07:34:26;49.17;;;37.00;;
77176;SDS011;66158;44.744;16.712;2022-12-18T07:36:52;50.78;;;38.10;;
77176;SDS011;66158;44.744;16.712;2022-12-18T07:39:17;50.10;;;37.72;;
77176;SDS011;66158;44.744;16.712;2022-12-18T07:41:43;48.53;;;37.47;;
77176;SDS011;66158;44.744;16.712;2022-12-18T07:44:29;49.63;;;37.88;;
77176;SDS011;66158;44.744;16.712;2022-12-18T07:46:55;50.47;;;37.08;;
77176;SDS011;66158;44.744;16.712;2022-12-18T07:49:20;45.33;;;35.03;;
77176;SDS011;66158;44.744;16.712;2022-12-18T07:51:46;50.05;;;37.20;;
77176;SDS011;66158;44.744;16.712;2022-12-18T07:54:14;49.88;;;37.03;;
77176;SDS011;66158;44.744;16.712;2022-12-18T07:56:40;45.95;;;34.55;;
77176;SDS011;66158;44.744;16.712;2022-12-18T07:59:07;45.85;;;36.33;;
77176;SDS011;66158;44.744;16.712;2022-12-18T08:01:33;41.80;;;32.83;;
77176;SDS011;66158;44.744;16.712;2022-12-18T08:03:59;45.47;;;35.08;;
77176;SDS011;66158;44.744;16.712;2022-12-18T08:06:25;46.47;;;35.67;;
77176;SDS011;66158;44.744;16.712;2022-12-18T08:08:51;45.50;;;35.05;;
77176;SDS011;66158;44.744;16.712;2022-12-18T08:11:18;45.00;;;37.35;;
77176;SDS011;66158;44.744;16.712;2022-12-18T08:13:44;48.50;;;36.20;;
77176;SDS011;66158;44.744;16.712;2022-12-18T08:16:10;44.63;;;35.75;;
77176;SDS011;66158;44.744;16.712;2022-12-18T08:18:36;43.92;;;35.13;;
77176;SDS011;66158;44.744;16.712;2022-12-18T08:23:37;41.20;;;33.70;;
77176;SDS011;66158;44.744;16.712;2022-12-18T08:26:03;42.15;;;33.85;;
77176;SDS011;66158;44.744;16.712;2022-12-18T08:28:29;40.70;;;33.25;;
77176;SDS011;66158;44.744;16.712;2022-12-18T08:30:55;41.35;;;33.85;;
77176;SDS011;66158;44.744;16.712;2022-12-18T08:33:21;41.88;;;32.95;;
77176;SDS011;66158;44.744;16.712;2022-12-18T08:35:46;40.53;;;32.90;;
77176;SDS011;66158;44.744;16.712;2022-12-18T08:38:12;39.35;;;32.03;;
77176;SDS011;66158;44.744;16.712;2022-12-18T08:40:38;37.28;;;31.67;;
77176;SDS011;66158;44.744;16.712;2022-12-18T08:43:04;42.40;;;32.38;;
77176;SDS011;66158;44.744;16.712;2022-12-18T08:45:48;39.17;;;31.90;;
77176;SDS011;66158;44.744;16.712;2022-12-18T08:48:14;40.17;;;31.77;;
77176;SDS011;66158;44.744;16.712;2022-12-18T08:50:40;38.97;;;31.75;;
77176;SDS011;66158;44.744;16.712;2022-12-18T08:53:06;37.10;;;29.90;;
77176;SDS011;66158;44.744;16.712;2022-12-18T08:55:31;38.92;;;31.17;;
77176;SDS011;66158;44.744;16.712;2022-12-18T08:57:57;37.40;;;30.35;;
77176;SDS011;66158;44.744;16.712;2022-12-18T09:00:23;38.15;;;32.13;;
77176;SDS011;66158;44.744;16.712;2022-12-18T09:02:49;33.42;;;28.77;;
77176;SDS011;66158;44.744;16.712;2022-12-18T09:05:14;38.03;;;29.77;;
77176;SDS011;66158;44.744;16.712;2022-12-18T09:07:40;36.78;;;29.50;;
77176;SDS011;66158;44.744;16.712;2022-12-18T09:10:06;36.72;;;28.67;;
77176;SDS011;66158;44.744;16.712;2022-12-18T09:12:32;36.08;;;27.60;;
77176;SDS011;66158;44.744;16.712;2022-12-18T09:14:58;33.33;;;27.25;;
77176;SDS011;66158;44.744;16.712;2022-12-18T09:17:24;34.88;;;29.58;;
77176;SDS011;66158;44.744;16.712;2022-12-18T09:19:50;40.13;;;32.63;;
77176;SDS011;66158;44.744;16.712;2022-12-18T09:22:16;42.47;;;34.45;;
77176;SDS011;66158;44.744;16.712;2022-12-18T09:24:42;39.95;;;31.55;;
77176;SDS011;66158;44.744;16.712;2022-12-18T09:27:07;37.65;;;30.13;;
77176;SDS011;66158;44.744;16.712;2022-12-18T09:29:33;35.88;;;30.20;;
77176;SDS011;66158;44.744;16.712;2022-12-18T09:31:59;37.78;;;30.38;;
77176;SDS011;66158;44.744;16.712;2022-12-18T09:34:25;33.03;;;27.67;;
77176;SDS011;66158;44.744;16.712;2022-12-18T09:36:50;37.10;;;29.83;;
77176;SDS011;66158;44.744;16.712;2022-12-18T09:39:16;37.00;;;29.65;;
77176;SDS011;66158;44.744;16.712;2022-12-18T09:41:46;31.75;;;27.52;;
77176;SDS011;66158;44.744;16.712;2022-12-18T09:44:34;37.15;;;28.17;;
77176;SDS011;66158;44.744;16.712;2022-12-18T09:49:48;35.17;;;28.10;;
77176;SDS011;66158;44.744;16.712;2022-12-18T09:52:27;32.35;;;27.50;;
77176;SDS011;66158;44.744;16.712;2022-12-18T09:57:42;34.08;;;28.73;;
77176;SDS011;66158;44.744;16.712;2022-12-18T10:00:19;32.42;;;26.15;;
77176;SDS011;66158;44.744;16.712;2022-12-18T10:02:46;30.60;;;25.95;;
77176;SDS011;66158;44.744;16.712;2022-12-18T10:05:15;33.30;;;27.48;;
77176;SDS011;66158;44.744;16.712;2022-12-18T10:07:47;30.67;;;26.55;;
77176;SDS011;66158;44.744;16.712;2022-12-18T10:10:23;29.88;;;25.00;;
77176;SDS011;66158;44.744;16.712;2022-12-18T10:12:58;33.85;;;26.67;;
77176;SDS011;66158;44.744;16.712;2022-12-18T10:15:39;30.77;;;26.30;;
77176;SDS011;66158;44.744;16.712;2022-12-18T10:21:00;30.25;;;25.27;;
77176;SDS011;66158;44.744;16.712;2022-12-18T10:26:10;28.45;;;24.48;;
77176;SDS011;66158;44.744;16.712;2022-12-18T10:28:38;29.88;;;24.85;;
77176;SDS011;66158;44.744;16.712;2022-12-18T10:31:06;27.88;;;23.25;;
77176;SDS011;66158;44.744;16.712;2022-12-18T10:33:43;31.83;;;25.90;;
77176;SDS011;66158;44.744;16.712;2022-12-18T10:36:09;29.30;;;24.25;;
77176;SDS011;66158;44.744;16.712;2022-12-18T10:38:35;27.85;;;23.80;;
77176;SDS011;66158;44.744;16.712;2022-12-18T10:41:02;29.33;;;24.23;;
77176;SDS011;66158;44.744;16.712;2022-12-18T10:44:11;28.42;;;24.27;;
77176;SDS011;66158;44.744;16.712;2022-12-18T10:46:46;26.65;;;23.85;;
77176;SDS011;66158;44.744;16.712;2022-12-18T10:49:21;26.90;;;23.35;;
77176;SDS011;66158;44.744;16.712;2022-12-18T10:52:03;28.80;;;24.17;;
77176;SDS011;66158;44.744;16.712;2022-12-18T10:54:53;27.23;;;23.05;;
77176;SDS011;66158;44.744;16.712;2022-12-18T11:00:20;24.75;;;22.05;;
77176;SDS011;66158;44.744;16.712;2022-12-18T11:02:48;26.98;;;23.52;;
77176;SDS011;66158;44.744;16.712;2022-12-18T11:05:25;27.25;;;23.23;;
77176;SDS011;66158;44.744;16.712;2022-12-18T11:07:53;26.65;;;22.17;;
77176;SDS011;66158;44.744;16.712;2022-12-18T11:10:40;27.65;;;23.02;;
77176;SDS011;66158;44.744;16.712;2022-12-18T11:13:18;26.75;;;22.08;;
77176;SDS011;66158;44.744;16.712;2022-12-18T11:15:46;29.52;;;22.40;;
77176;SDS011;66158;44.744;16.712;2022-12-18T11:18:16;25.35;;;20.98;;
77176;SDS011;66158;44.744;16.712;2022-12-18T11:20:56;23.17;;;20.35;;
77176;SDS011;66158;44.744;16.712;2022-12-18T11:23:25;24.33;;;21.25;;
77176;SDS011;66158;44.744;16.712;2022-12-18T11:25:56;24.63;;;21.85;;
77176;SDS011;66158;44.744;16.712;2022-12-18T11:31:26;21.77;;;19.17;;
77176;SDS011;66158;44.744;16.712;2022-12-18T11:34:04;24.02;;;21.15;;
77176;SDS011;66158;44.744;16.712;2022-12-18T11:36:45;21.80;;;19.45;;
77176;SDS011;66158;44.744;16.712;2022-12-18T11:42:04;22.45;;;19.23;;
77176;SDS011;66158;44.744;16.712;2022-12-18T11:47:29;22.38;;;18.90;;
77176;SDS011;66158;44.744;16.712;2022-12-18T11:50:10;21.88;;;17.80;;
77176;SDS011;66158;44.744;16.712;2022-12-18T11:52:41;20.90;;;18.63;;
77176;SDS011;66158;44.744;16.712;2022-12-18T11:58:30;19.85;;;17.73;;
77176;SDS011;66158;44.744;16.712;2022-12-18T12:06:24;21.10;;;17.38;;
77176;SDS011;66158;44.744;16.712;2022-12-18T12:09:14;20.73;;;17.77;;
77176;SDS011;66158;44.744;16.712;2022-12-18T12:17:31;18.33;;;15.93;;
77176;SDS011;66158;44.744;16.712;2022-12-18T12:20:14;19.67;;;16.55;;
77176;SDS011;66158;44.744;16.712;2022-12-18T12:30:58;17.73;;;15.80;;
77176;SDS011;66158;44.744;16.712;2022-12-18T12:36:19;20.15;;;17.02;;
77176;SDS011;66158;44.744;16.712;2022-12-18T12:39:05;19.77;;;16.40;;
77176;SDS011;66158;44.744;16.712;2022-12-18T12:41:36;18.70;;;16.38;;
77176;SDS011;66158;44.744;16.712;2022-12-18T12:44:24;17.58;;;15.25;;
77176;SDS011;66158;44.744;16.712;2022-12-18T12:46:55;18.85;;;16.80;;
77176;SDS011;66158;44.744;16.712;2022-12-18T12:49:29;21.20;;;17.33;;
77176;SDS011;66158;44.744;16.712;2022-12-18T12:54:32;22.42;;;18.73;;
77176;SDS011;66158;44.744;16.712;2022-12-18T12:57:08;20.40;;;17.55;;
77176;SDS011;66158;44.744;16.712;2022-12-18T12:59:41;23.15;;;18.35;;
77176;SDS011;66158;44.744;16.712;2022-12-18T13:07:56;23.60;;;19.98;;
77176;SDS011;66158;44.744;16.712;2022-12-18T13:15:48;21.42;;;19.08;;
77176;SDS011;66158;44.744;16.712;2022-12-18T13:18:28;22.30;;;19.08;;
77176;SDS011;66158;44.744;16.712;2022-12-18T13:25:52;20.15;;;17.40;;
77176;SDS011;66158;44.744;16.712;2022-12-18T13:28:23;26.58;;;20.55;;
77176;SDS011;66158;44.744;16.712;2022-12-18T13:30:59;22.65;;;20.23;;
77176;SDS011;66158;44.744;16.712;2022-12-18T13:36:12;22.38;;;18.42;;
77176;SDS011;66158;44.744;16.712;2022-12-18T13:38:47;23.00;;;18.30;;
77176;SDS011;66158;44.744;16.712;2022-12-18T13:41:33;23.83;;;20.98;;
77176;SDS011;66158;44.744;16.712;2022-12-18T13:44:10;22.33;;;19.95;;
77176;SDS011;66158;44.744;16.712;2022-12-18T13:46:45;22.55;;;19.73;;
77176;SDS011;66158;44.744;16.712;2022-12-18T13:51:42;22.25;;;19.77;;
77176;SDS011;66158;44.744;16.712;2022-12-18T13:54:24;22.88;;;19.20;;
77176;SDS011;66158;44.744;16.712;2022-12-18T13:56:59;20.50;;;18.17;;
77176;SDS011;66158;44.744;16.712;2022-12-18T13:59:26;21.13;;;17.52;;
77176;SDS011;66158;44.744;16.712;2022-12-18T14:02:23;22.00;;;17.98;;
77176;SDS011;66158;44.744;16.712;2022-12-18T14:04:51;20.30;;;17.20;;
77176;SDS011;66158;44.744;16.712;2022-12-18T14:07:18;19.60;;;17.52;;
77176;SDS011;66158;44.744;16.712;2022-12-18T14:09:53;20.02;;;17.67;;
77176;SDS011;66158;44.744;16.712;2022-12-18T14:12:26;19.52;;;17.42;;
77176;SDS011;66158;44.744;16.712;2022-12-18T14:20:48;22.52;;;18.17;;
77176;SDS011;66158;44.744;16.712;2022-12-18T14:23:32;22.13;;;16.98;;
77176;SDS011;66158;44.744;16.712;2022-12-18T14:28:24;19.70;;;16.08;;
77176;SDS011;66158;44.744;16.712;2022-12-18T14:30:51;19.83;;;15.85;;
77176;SDS011;66158;44.744;16.712;2022-12-18T14:33:21;18.50;;;16.55;;
77176;SDS011;66158;44.744;16.712;2022-12-18T14:35:56;19.35;;;16.40;;
77176;SDS011;66158;44.744;16.712;2022-12-18T14:40:54;22.27;;;16.17;;
77176;SDS011;66158;44.744;16.712;2022-12-18T14:43:23;22.00;;;17.02;;
77176;SDS011;66158;44.744;16.712;2022-12-18T14:45:49;21.02;;;16.98;;
77176;SDS011;66158;44.744;16.712;2022-12-18T14:48:17;20.13;;;16.52;;
77176;SDS011;66158;44.744;16.712;2022-12-18T14:50:57;21.58;;;17.17;;
77176;SDS011;66158;44.744;16.712;2022-12-18T14:53:33;20.23;;;17.20;;
77176;SDS011;66158;44.744;16.712;2022-12-18T14:56:03;20.13;;;17.48;;
77176;SDS011;66158;44.744;16.712;2022-12-18T14:58:38;20.95;;;17.95;;
77176;SDS011;66158;44.744;16.712;2022-12-18T15:01:09;21.15;;;16.83;;
77176;SDS011;66158;44.744;16.712;2022-12-18T15:03:43;19.65;;;17.35;;
77176;SDS011;66158;44.744;16.712;2022-12-18T15:06:29;20.90;;;17.70;;
77176;SDS011;66158;44.744;16.712;2022-12-18T15:08:58;20.67;;;18.33;;
77176;SDS011;66158;44.744;16.712;2022-12-18T15:13:52;21.40;;;18.88;;
77176;SDS011;66158;44.744;16.712;2022-12-18T15:16:18;19.67;;;17.30;;
77176;SDS011;66158;44.744;16.712;2022-12-18T15:18:44;20.08;;;17.90;;
77176;SDS011;66158;44.744;16.712;2022-12-18T15:21:17;22.52;;;19.27;;
77176;SDS011;66158;44.744;16.712;2022-12-18T15:23:52;22.80;;;19.30;;
77176;SDS011;66158;44.744;16.712;2022-12-18T15:26:19;23.27;;;19.60;;
77176;SDS011;66158;44.744;16.712;2022-12-18T15:33:41;22.95;;;20.00;;
77176;SDS011;66158;44.744;16.712;2022-12-18T15:36:15;22.80;;;19.92;;
77176;SDS011;66158;44.744;16.712;2022-12-18T15:38:45;24.15;;;20.65;;
77176;SDS011;66158;44.744;16.712;2022-12-18T15:41:16;22.02;;;19.63;;
77176;SDS011;66158;44.744;16.712;2022-12-18T15:43:44;24.10;;;20.40;;
77176;SDS011;66158;44.744;16.712;2022-12-18T15:46:12;24.23;;;20.58;;
77176;SDS011;66158;44.744;16.712;2022-12-18T15:48:44;22.35;;;19.95;;
77176;SDS011;66158;44.744;16.712;2022-12-18T15:51:12;23.00;;;20.02;;
77176;SDS011;66158;44.744;16.712;2022-12-18T15:53:45;22.65;;;20.27;;
77176;SDS011;66158;44.744;16.712;2022-12-18T15:56:13;24.17;;;20.63;;
77176;SDS011;66158;44.744;16.712;2022-12-18T15:58:58;21.52;;;19.17;;
77176;SDS011;66158;44.744;16.712;2022-12-18T16:01:29;25.25;;;20.90;;
77176;SDS011;66158;44.744;16.712;2022-12-18T16:03:56;21.92;;;19.55;;
77176;SDS011;66158;44.744;16.712;2022-12-18T16:06:22;21.75;;;18.50;;
77176;SDS011;66158;44.744;16.712;2022-12-18T16:08:48;21.38;;;19.08;;
77176;SDS011;66158;44.744;16.712;2022-12-18T16:16:52;21.55;;;18.98;;
77176;SDS011;66158;44.744;16.712;2022-12-18T16:19:20;23.15;;;20.15;;
77176;SDS011;66158;44.744;16.712;2022-12-18T16:21:46;23.55;;;19.67;;
77176;SDS011;66158;44.744;16.712;2022-12-18T16:24:17;23.10;;;20.13;;
77176;SDS011;66158;44.744;16.712;2022-12-18T16:26:48;22.92;;;19.23;;
77176;SDS011;66158;44.744;16.712;2022-12-18T16:29:16;24.50;;;20.90;;
77176;SDS011;66158;44.744;16.712;2022-12-18T16:31:43;23.25;;;20.75;;